• Join FlightAware (Why Join?)
  • Login
  • US Flag 
10:50PM EST


 

Airport Tracker/Info


-or-


 

Live Flight TrackerFlight Track Log ✈ EJA929 ✈ 01-Sep-2013 ✈ KSMO - KMMH

Flight Track Log - Related Links

Times and Time Zones

All times are in EDT time to prevent confusion due to time zone crossing. See the EJA929 flight status page for this flight to view local times or setup timezone preferences in your user account.

Time Position Orientation Groundspeed Altitude Reporting Facility
EDT Latitude Longitude Course Direction KTS MPH feet Rate Location/Type
02:11PM 33.9950 -118.4792 250° West 178 205 2,000  Level Los Angeles Center
02:12PM 33.9772 -118.5369 250° West 182 209 3,500 2,064 Climbing Los Angeles Center
02:13PM 33.9708 -118.6106 264° West 218 251 6,300 2,208 Climbing Los Angeles Center
02:14PM 33.9906 -118.6886 287° West 242 278 8,100 1,306 Climbing Los Angeles Center
02:15PM 34.0636 -118.7297 335° Northwest 288 331 9,000 435 Climbing Los Angeles Center
02:16PM 34.1350 -118.6972 21° North 301 346 9,000 290 Level Los Angeles Center
02:17PM 34.2203 -118.6597 20° North 318 366 9,600 1,839 Climbing Los Angeles Center
02:18PM 34.3250 -118.6442 North 326 375 12,800 2,177 Climbing Los Angeles Center
02:19PM 34.4144 -118.6811 341° North 341 392 14,100 1,548 Climbing Los Angeles Center
02:20PM 34.5103 -118.7244 340° North 364 419 16,000 1,790 Climbing Los Angeles Center
02:21PM 34.6050 -118.7700 338° Northwest 368 423 17,800 1,742 Climbing Los Angeles Center
02:22PM 34.6997 -118.8144 339° North 366 421 19,600 1,742 Climbing Los Angeles Center
02:23PM 34.7942 -118.8583 339° North 365 420 21,400 1,839 Climbing Los Angeles Center
02:24PM 34.8978 -118.8953 344° North 364 419 23,400 1,258 Climbing Los Angeles Center
02:25PM 34.9972 -118.9297 344° North 371 427 24,000 288 Climbing Los Angeles Center
02:26PM 35.1378 -118.9461 355° North 437 503 24,000  Level Los Angeles Center
02:27PM 35.2656 -118.9364 North 458 527 24,000 242 Level Los Angeles Center
02:28PM 35.3897 -118.9278 North 452 520 24,500 677 Climbing Los Angeles Center
02:29PM 35.5169 -118.9200 North 456 525 25,400 726 Climbing Los Angeles Center
02:30PM 35.6483 -118.9106 North 468 539 26,000 290 Climbing Los Angeles Center
02:32PM 35.8128 -118.8989 North 490 564 26,000  Level Los Angeles Center
02:33PM 35.9536 -118.8889 North 510 587 26,000  Level Oakland Center
02:34PM 36.0947 -118.8786 North 510 587 26,000  Level Oakland Center
02:35PM 36.2361 -118.8697 North 510 587 26,000 -244 Level Oakland Center
02:36PM 36.3742 -118.8533 North 505 581 25,500 -927 Descending Oakland Center
02:37PM 36.5039 -118.7978 19° North 496 571 24,100 -829 Descending Oakland Center
02:38PM 36.6250 -118.7381 22° Northeast 475 547 23,800 -1,317 Descending Oakland Center
02:39PM 36.7631 -118.6697 22° Northeast 448 516 21,400 -2,195 Descending Oakland Center
02:40PM 36.8733 -118.6119 23° Northeast 437 503 19,300 -2,049 Descending Oakland Center
02:41PM 36.9858 -118.5581 21° North 434 499 17,200 -1,087 Descending Oakland Center
02:42PM 37.1044 -118.4961 23° Northeast 411 473 17,000 -141 Descending Los Angeles Center
02:43PM 37.2056 -118.4381 25° Northeast 401 461 16,900 -50 Descending Los Angeles Center
02:44PM 37.2881 -118.3994 20° North 398 458 16,900 -203 Level Oakland Center
02:45PM 37.4161 -118.3833 North 390 449 16,500 -1,268 Descending Oakland Center
02:46PM 37.5114 -118.4375 336° Northwest 382 440 14,300 -2,129 Descending Oakland Center
02:48PM 37.6211 -118.4937 338° Northwest  Level FlightAware Approximate